Time;durP1;ratioP1;P1;durP2;ratioP2;P2;SDS_P1;SDS_P2;PMS_P1;PMS_P2;Temp;Humidity;BMP_temperature;BMP_pressure;BME280_temperature;BME280_humidity;BME280_pressure;Samples;Min_cycle;Max_cycle;Signal;HPM_P1;HPM_P2
2023/10/30 00:00:48;;;;;;;29.25;15.85;;;10.10;99.90;;;;;;6191485;23;20080;-79
2023/10/30 00:03:15;;;;;;;27.23;16.70;;;10.10;99.90;;;;;;6190874;23;20041;-77
2023/10/30 00:05:42;;;;;;;35.30;16.48;;;10.00;99.90;;;;;;6191554;23;20009;-78
2023/10/30 00:08:10;;;;;;;29.27;14.77;;;9.80;99.90;;;;;;6191357;23;20013;-76
2023/10/30 00:10:37;;;;;;;24.25;13.85;;;9.80;99.90;;;;;;6191873;23;20067;-78
2023/10/30 00:13:04;;;;;;;22.80;13.68;;;9.90;99.90;;;;;;6190954;23;20410;-77
2023/10/30 00:15:32;;;;;;;24.50;13.18;;;9.90;99.90;;;;;;6191921;23;20009;-77
2023/10/30 00:18:01;;;;;;;22.67;13.05;;;9.90;99.90;;;;;;6190413;23;20048;-79
2023/10/30 00:20:28;;;;;;;25.02;13.15;;;9.80;99.90;;;;;;6190542;23;20017;-79
2023/10/30 00:22:56;;;;;;;22.27;11.20;;;9.80;99.90;;;;;;6192536;23;20025;-79
2023/10/30 00:25:23;;;;;;;23.52;12.77;;;9.80;99.90;;;;;;6179853;23;20071;-78
2023/10/30 00:27:50;;;;;;;22.20;13.77;;;9.90;99.90;;;;;;6191382;23;20019;-80
2023/10/30 00:30:18;;;;;;;22.25;13.82;;;9.80;99.90;;;;;;6180101;23;20024;-77
2023/10/30 00:32:45;;;;;;;24.13;13.68;;;9.80;99.90;;;;;;6179797;23;20028;-77
2023/10/30 00:35:14;;;;;;;21.98;12.98;;;9.80;99.90;;;;;;6179078;23;20017;-77
2023/10/30 00:37:43;;;;;;;23.98;13.38;;;9.70;99.90;;;;;;6179090;23;20430;-77
2023/10/30 00:40:12;;;;;;;24.52;13.85;;;9.70;99.90;;;;;;6178997;23;20013;-77
2023/10/30 00:42:39;;;;;;;28.63;14.82;;;9.80;99.90;;;;;;6190989;23;20009;-78
2023/10/30 00:45:09;;;;;;;21.48;13.23;;;9.80;99.90;;;;;;6179309;23;20021;-77
2023/10/30 00:47:38;;;;;;;20.02;12.02;;;9.70;99.90;;;;;;6178560;23;20024;-78
2023/10/30 00:50:07;;;;;;;18.55;10.93;;;9.70;99.90;;;;;;6192249;23;20017;-79
2023/10/30 00:52:36;;;;;;;20.60;10.73;;;9.70;99.90;;;;;;6192870;23;20428;-77
2023/10/30 00:55:03;;;;;;;17.83;11.13;;;9.70;99.90;;;;;;6192974;23;20068;-77
2023/10/30 00:57:31;;;;;;;23.85;12.07;;;9.80;99.90;;;;;;6180003;23;20017;-77
2023/10/30 00:59:59;;;;;;;19.90;11.13;;;9.80;99.90;;;;;;6192905;23;20028;-79
2023/10/30 01:02:26;;;;;;;22.50;11.40;;;9.80;99.90;;;;;;6192521;23;20009;-79
2023/10/30 01:04:53;;;;;;;21.25;11.88;;;9.70;99.90;;;;;;6182062;23;20434;-78
2023/10/30 01:07:21;;;;;;;22.80;13.05;;;9.80;99.90;;;;;;6192565;23;20036;-78
2023/10/30 01:09:49;;;;;;;25.60;12.75;;;9.70;99.90;;;;;;6181331;23;20303;-79
2023/10/30 01:12:17;;;;;;;22.50;12.40;;;9.70;99.90;;;;;;6192929;23;20017;-79
2023/10/30 01:14:44;;;;;;;20.27;11.50;;;9.70;99.90;;;;;;6180750;23;20016;-78
2023/10/30 01:17:12;;;;;;;21.83;10.95;;;9.60;99.90;;;;;;6192566;23;20014;-78
2023/10/30 01:19:41;;;;;;;18.73;9.30;;;9.50;99.90;;;;;;6191969;23;20013;-78
2023/10/30 01:22:10;;;;;;;17.05;9.40;;;9.50;99.90;;;;;;6181206;23;20013;-79
2023/10/30 01:24:37;;;;;;;17.58;9.50;;;9.50;99.90;;;;;;6180443;23;20442;-77
2023/10/30 01:27:06;;;;;;;21.55;11.63;;;9.50;99.90;;;;;;6180549;23;20079;-79
2023/10/30 01:29:33;;;;;;;29.92;15.63;;;9.50;99.90;;;;;;6180381;23;20079;-80
2023/10/30 01:32:01;;;;;;;52.58;30.95;;;9.60;99.90;;;;;;6192392;23;20021;-78
2023/10/30 01:34:28;;;;;;;21.30;11.82;;;9.40;99.90;;;;;;6181147;23;20500;-78
2023/10/30 01:36:56;;;;;;;26.40;12.70;;;9.40;99.90;;;;;;6180058;23;20063;-76
2023/10/30 01:39:23;;;;;;;17.92;11.60;;;9.40;99.90;;;;;;6156306;23;20021;-79
2023/10/30 01:41:50;;;;;;;23.98;12.40;;;9.40;99.90;;;;;;6192205;23;20020;-77
2023/10/30 01:44:19;;;;;;;17.00;9.75;;;9.40;99.90;;;;;;6181157;23;20051;-77
2023/10/30 01:46:46;;;;;;;21.02;12.75;;;9.40;99.90;;;;;;6191489;23;20013;-78
2023/10/30 01:49:14;;;;;;;25.77;16.55;;;9.40;99.90;;;;;;6180973;23;20025;-77
2023/10/30 01:51:42;;;;;;;30.58;19.48;;;9.30;99.90;;;;;;6181101;23;20017;-78
2023/10/30 01:54:09;;;;;;;30.08;16.75;;;9.30;99.90;;;;;;6181906;23;20031;-77
2023/10/30 01:56:37;;;;;;;33.20;18.35;;;9.30;99.90;;;;;;6157890;23;20017;-77
2023/10/30 01:59:04;;;;;;;30.75;16.90;;;9.20;99.90;;;;;;6189754;23;20017;-78
2023/10/30 02:01:37;;;;;;;26.77;15.32;;;9.20;99.90;;;;;;6194708;23;20013;-77
2023/10/30 02:04:05;;;;;;;20.13;12.35;;;9.20;99.90;;;;;;6185890;23;20017;-78
2023/10/30 02:06:32;;;;;;;20.88;11.23;;;9.20;99.90;;;;;;6183477;23;20446;-77
2023/10/30 02:09:00;;;;;;;16.35;8.82;;;9.30;99.90;;;;;;6185998;23;20013;-77
2023/10/30 02:11:27;;;;;;;14.70;8.38;;;9.30;99.90;;;;;;6200308;23;20032;-78
2023/10/30 02:13:56;;;;;;;17.38;9.48;;;9.20;99.90;;;;;;6185264;23;20029;-78
2023/10/30 02:16:23;;;;;;;18.20;9.52;;;9.30;99.90;;;;;;6156151;23;20015;-78
2023/10/30 02:18:52;;;;;;;16.45;9.48;;;9.30;99.90;;;;;;6180708;23;20027;-77
2023/10/30 02:21:20;;;;;;;19.80;9.88;;;9.40;99.90;;;;;;6181009;23;20017;-76
2023/10/30 02:23:48;;;;;;;19.77;9.63;;;9.30;99.90;;;;;;6192539;23;20024;-78
2023/10/30 02:26:17;;;;;;;18.02;8.77;;;9.30;99.90;;;;;;6191752;23;20040;-79
2023/10/30 02:28:44;;;;;;;15.73;8.63;;;9.20;99.90;;;;;;6180986;23;20017;-78
2023/10/30 02:31:11;;;;;;;20.25;9.75;;;9.10;99.90;;;;;;6180743;23;20437;-78
2023/10/30 02:33:39;;;;;;;21.40;11.57;;;9.10;99.90;;;;;;6180856;23;20029;-76
2023/10/30 02:36:07;;;;;;;16.05;9.73;;;9.00;99.90;;;;;;6180078;23;20071;-78
2023/10/30 02:38:35;;;;;;;14.52;8.15;;;9.00;99.90;;;;;;6191989;23;20029;-79
2023/10/30 02:41:03;;;;;;;16.13;8.23;;;9.10;99.90;;;;;;6180492;23;20017;-80
2023/10/30 02:43:31;;;;;;;17.92;10.52;;;9.10;99.90;;;;;;6179392;23;20052;-78
2023/10/30 02:45:59;;;;;;;18.95;8.40;;;9.00;99.90;;;;;;6179646;23;20697;-78
2023/10/30 02:48:26;;;;;;;13.13;7.22;;;9.00;99.90;;;;;;6179550;23;20513;-77
2023/10/30 02:50:54;;;;;;;14.70;8.27;;;9.10;99.90;;;;;;6180072;23;20349;-79
2023/10/30 02:53:21;;;;;;;15.65;8.50;;;9.10;99.90;;;;;;6179767;23;20077;-78
2023/10/30 02:55:49;;;;;;;15.57;8.95;;;9.20;99.90;;;;;;6180484;23;20052;-78
2023/10/30 02:58:16;;;;;;;14.73;7.53;;;9.10;99.90;;;;;;6190702;23;20121;-79
2023/10/30 03:00:45;;;;;;;14.80;6.90;;;9.10;99.90;;;;;;6192191;23;20024;-77
2023/10/30 03:03:13;;;;;;;13.05;6.85;;;9.20;99.90;;;;;;6179998;23;20012;-79
2023/10/30 03:05:41;;;;;;;11.93;7.13;;;9.20;99.90;;;;;;6191496;23;20068;-78
2023/10/30 03:08:08;;;;;;;14.65;7.88;;;9.20;99.90;;;;;;6179383;23;20036;-78
2023/10/30 03:10:35;;;;;;;14.60;7.70;;;9.10;99.90;;;;;;6179233;23;20096;-77
2023/10/30 03:13:03;;;;;;;13.13;8.85;;;9.20;99.90;;;;;;6179859;23;20081;-78
2023/10/30 03:15:30;;;;;;;16.30;9.10;;;9.20;99.90;;;;;;6179379;23;20048;-77
2023/10/30 03:17:59;;;;;;;19.20;9.73;;;9.10;99.90;;;;;;6179616;23;20044;-79
2023/10/30 03:20:27;;;;;;;13.52;8.77;;;9.00;99.90;;;;;;6191800;23;20035;-78
2023/10/30 03:22:54;;;;;;;12.45;6.65;;;8.90;99.90;;;;;;6191872;23;20381;-79
2023/10/30 03:25:22;;;;;;;13.68;6.10;;;8.80;99.90;;;;;;6179903;23;20581;-78
2023/10/30 03:27:49;;;;;;;10.82;7.50;;;8.90;99.90;;;;;;6190891;23;20079;-79
2023/10/30 03:30:18;;;;;;;13.18;7.55;;;9.00;99.90;;;;;;6182176;23;20088;-77
2023/10/30 03:32:45;;;;;;;11.32;7.63;;;9.00;99.90;;;;;;6191544;23;20017;-77
2023/10/30 03:35:14;;;;;;;13.48;7.38;;;9.00;99.90;;;;;;6197415;22;20009;-74
2023/10/30 03:37:42;;;;;;;15.23;8.52;;;9.00;99.90;;;;;;6220556;23;20008;-75
2023/10/30 03:40:13;;;;;;;12.27;8.20;;;9.00;99.90;;;;;;6220902;23;20004;-74
2023/10/30 03:42:41;;;;;;;13.45;7.43;;;8.90;99.90;;;;;;6213884;23;20005;-75
2023/10/30 03:45:11;;;;;;;12.52;7.15;;;8.90;99.90;;;;;;6209921;23;20051;-76
2023/10/30 03:47:39;;;;;;;12.75;7.32;;;8.90;99.90;;;;;;6212576;23;20063;-75
2023/10/30 03:50:14;;;;;;;14.93;6.20;;;8.90;99.90;;;;;;6196948;23;20024;-75
2023/10/30 03:52:41;;;;;;;9.80;6.30;;;9.00;99.90;;;;;;6183369;23;20048;-75
2023/10/30 03:55:09;;;;;;;14.35;6.90;;;9.00;99.90;;;;;;6184528;23;20021;-75
2023/10/30 03:57:40;;;;;;;10.40;6.28;;;9.00;99.90;;;;;;6194477;23;20020;-74
2023/10/30 04:00:10;;;;;;;10.15;6.13;;;9.00;99.90;;;;;;6181641;23;20234;-74
2023/10/30 04:02:41;;;;;;;13.27;7.63;;;9.00;99.90;;;;;;6194587;23;20540;-77
2023/10/30 04:05:09;;;;;;;12.93;7.32;;;9.00;99.90;;;;;;6216039;23;20029;-75
2023/10/30 04:07:44;;;;;;;12.27;7.28;;;8.90;99.90;;;;;;6215501;23;20056;-75
2023/10/30 04:10:14;;;;;;;10.73;7.13;;;8.80;99.90;;;;;;6211949;23;20005;-75
2023/10/30 04:12:41;;;;;;;12.43;6.43;;;8.80;99.90;;;;;;6202608;23;20021;-78
2023/10/30 04:15:10;;;;;;;9.93;5.30;;;8.80;99.90;;;;;;6196847;23;20079;-75
2023/10/30 04:17:40;;;;;;;13.23;5.78;;;8.80;99.90;;;;;;6194558;23;20021;-75
2023/10/30 04:20:08;;;;;;;10.50;5.38;;;8.80;99.90;;;;;;6182575;23;20017;-77
2023/10/30 04:22:37;;;;;;;10.27;4.30;;;8.70;99.90;;;;;;6195977;23;20063;-78
2023/10/30 04:25:08;;;;;;;7.90;4.72;;;8.70;99.90;;;;;;6197199;23;20076;-75
2023/10/30 04:27:40;;;;;;;10.55;5.57;;;8.80;99.90;;;;;;6187017;23;20017;-74
2023/10/30 04:30:09;;;;;;;13.02;5.53;;;8.70;99.90;;;;;;6197354;23;20017;-76
2023/10/30 04:32:36;;;;;;;14.25;7.10;;;8.70;99.90;;;;;;6186579;23;20053;-75
2023/10/30 04:35:04;;;;;;;11.18;7.10;;;8.60;99.90;;;;;;6196603;23;20067;-74
2023/10/30 04:37:35;;;;;;;13.57;7.10;;;8.60;99.90;;;;;;6196744;23;20088;-75
2023/10/30 04:40:02;;;;;;;11.98;7.25;;;8.60;99.90;;;;;;6196313;23;20072;-75
2023/10/30 04:42:31;;;;;;;17.67;8.02;;;8.50;99.90;;;;;;6184485;23;20021;-74
2023/10/30 04:44:59;;;;;;;13.98;9.50;;;8.50;99.90;;;;;;6198277;23;20009;-74
2023/10/30 04:47:26;;;;;;;15.98;8.70;;;8.60;99.90;;;;;;6205788;23;20017;-75
2023/10/30 04:49:54;;;;;;;19.08;10.98;;;8.70;99.90;;;;;;6174785;23;20049;-76
2023/10/30 04:52:23;;;;;;;17.83;11.60;;;8.70;99.90;;;;;;6175857;23;20045;-75
2023/10/30 04:54:49;;;;;;;10.55;6.55;;;8.70;99.90;;;;;;6170118;23;20040;-75
2023/10/30 04:57:17;;;;;;;8.30;5.20;;;8.70;99.90;;;;;;6159387;23;20051;-80
2023/10/30 04:59:46;;;;;;;10.57;5.32;;;8.70;99.90;;;;;;6158915;23;20052;-78
2023/10/30 05:02:14;;;;;;;13.95;8.10;;;8.70;99.90;;;;;;6176296;23;20072;-73
2023/10/30 05:04:41;;;;;;;15.63;9.23;;;8.80;99.90;;;;;;6177729;23;20013;-76
2023/10/30 05:07:08;;;;;;;17.02;10.57;;;8.60;99.90;;;;;;6214730;23;20017;-74
2023/10/30 05:09:37;;;;;;;17.52;11.85;;;8.70;99.90;;;;;;6213494;23;20013;-76
2023/10/30 05:12:05;;;;;;;13.45;8.88;;;8.80;99.90;;;;;;6177343;23;20024;-74
2023/10/30 05:14:32;;;;;;;12.48;6.22;;;8.70;99.90;;;;;;6202145;23;20032;-75
2023/10/30 05:17:01;;;;;;;13.90;7.88;;;8.60;99.90;;;;;;6211536;23;20036;-75
2023/10/30 05:19:29;;;;;;;11.35;7.30;;;8.50;99.90;;;;;;6210784;23;20033;-76
2023/10/30 05:21:56;;;;;;;14.63;8.85;;;8.60;99.90;;;;;;6209774;23;20032;-74
2023/10/30 05:24:24;;;;;;;19.20;9.90;;;8.60;99.90;;;;;;6208171;23;20092;-75
2023/10/30 05:26:52;;;;;;;27.35;13.98;;;8.70;99.90;;;;;;6206117;23;20033;-75
2023/10/30 05:29:20;;;;;;;19.98;11.70;;;8.70;99.90;;;;;;6207014;23;20017;-74
2023/10/30 05:31:50;;;;;;;25.95;11.48;;;8.70;99.90;;;;;;6198044;23;20024;-74
2023/10/30 05:34:19;;;;;;;15.88;9.50;;;8.70;99.90;;;;;;6158452;23;20053;-77
2023/10/30 05:36:46;;;;;;;22.70;11.85;;;8.80;99.90;;;;;;6194562;23;20013;-78
2023/10/30 05:39:14;;;;;;;20.65;12.45;;;8.90;99.90;;;;;;6159080;23;20469;-76
2023/10/30 05:41:42;;;;;;;24.65;13.13;;;8.80;99.90;;;;;;6198238;23;20028;-76
2023/10/30 05:44:11;;;;;;;23.55;13.52;;;8.90;99.90;;;;;;6157977;23;20346;-76
2023/10/30 05:46:38;;;;;;;33.10;18.25;;;9.00;99.90;;;;;;6194891;23;20464;-76
2023/10/30 05:49:06;;;;;;;20.48;13.05;;;9.00;99.90;;;;;;6157389;23;20021;-77
2023/10/30 05:51:34;;;;;;;22.85;12.25;;;8.90;99.90;;;;;;6194201;23;20024;-78
2023/10/30 05:54:02;;;;;;;17.08;10.20;;;8.90;99.90;;;;;;6157522;23;20017;-75
2023/10/30 05:56:31;;;;;;;20.00;10.15;;;8.90;99.90;;;;;;6194941;23;20088;-77
2023/10/30 05:58:58;;;;;;;18.15;9.10;;;9.10;99.90;;;;;;6196471;23;20078;-78
2023/10/30 06:01:26;;;;;;;19.80;8.07;;;9.20;99.90;;;;;;6195337;23;20013;-75
2023/10/30 06:03:56;;;;;;;17.27;9.15;;;9.30;99.90;;;;;;6158835;23;20044;-75
2023/10/30 06:06:24;;;;;;;15.82;9.38;;;9.40;99.90;;;;;;6157424;23;20017;-76
2023/10/30 06:08:53;;;;;;;23.45;11.25;;;9.60;99.90;;;;;;6194002;23;20067;-76
2023/10/30 06:11:20;;;;;;;24.35;13.45;;;9.70;99.90;;;;;;6158941;23;20013;-76
2023/10/30 06:13:48;;;;;;;22.13;12.40;;;9.80;99.90;;;;;;6194475;23;20442;-76
2023/10/30 06:16:16;;;;;;;20.58;11.77;;;9.80;99.90;;;;;;6195246;23;20446;-76
2023/10/30 06:18:43;;;;;;;24.10;12.75;;;9.90;99.90;;;;;;6208876;23;20033;-76
2023/10/30 06:21:16;;;;;;;21.48;11.85;;;10.00;99.90;;;;;;6172136;23;20013;-76
2023/10/30 06:23:43;;;;;;;16.67;10.65;;;10.10;99.90;;;;;;6209831;23;20065;-77
2023/10/30 06:26:13;;;;;;;23.27;12.13;;;10.20;99.90;;;;;;6163515;23;20040;-76
2023/10/30 06:28:41;;;;;;;18.23;10.45;;;10.50;99.90;;;;;;6200490;23;20055;-76
2023/10/30 06:31:14;;;;;;;12.85;8.10;;;10.80;99.90;;;;;;6199570;23;20017;-75
2023/10/30 06:33:42;;;;;;;16.95;10.20;;;10.90;99.90;;;;;;6170878;23;20043;-76
2023/10/30 06:36:10;;;;;;;11.65;7.00;;;11.20;99.90;;;;;;6181836;23;20017;-76
2023/10/30 06:38:38;;;;;;;11.48;6.78;;;11.30;1.00;;;;;;6181507;23;20012;-76
2023/10/30 06:41:05;;;;;;;14.00;7.53;;;11.40;1.00;;;;;;6218360;23;20032;-75
2023/10/30 06:43:35;;;;;;;27.95;13.20;;;11.60;99.90;;;;;;6217801;23;20016;-74
2023/10/30 06:46:03;;;;;;;18.15;6.28;;;11.70;1.00;;;;;;6179562;23;20021;-76
2023/10/30 06:59:38;;;;;;;17.83;9.73;;;12.20;99.90;;;;;;6135419;23;20091;-81
2023/10/30 13:23:52;;;;;;;;;;;;;;;;;;;;;
2023/10/30 16:33:17;;;;;;;89.25;57.05;;;18.10;1.00;;;;;;6268735;23;20038;-86
2023/10/30 16:35:49;;;;;;;92.53;60.38;;;18.00;1.60;;;;;;6224786;23;20013;-83
2023/10/30 16:50:10;;;;;;;60.38;43.15;;;17.50;99.90;;;;;;6020078;23;20026;-80
2023/10/30 17:04:46;;;;;;;73.00;42.80;;;17.00;99.90;;;;;;5919777;24;20472;-81
2023/10/30 17:08:21;;;;;;;76.97;48.90;;;17.00;99.90;;;;;;5923771;24;20044;-81
2023/10/30 17:24:32;;;;;;;75.45;47.28;;;16.00;1.00;;;;;;5981057;23;19968;-84
2023/10/30 18:01:29;;;;;;;46.50;28.23;;;15.50;99.90;;;;;;5975287;23;20010;-79
2023/10/30 18:03:56;;;;;;;36.95;22.73;;;15.50;99.90;;;;;;6039343;23;20022;-80
2023/10/30 18:06:26;;;;;;;35.47;22.45;;;15.60;74.50;;;;;;6038803;23;20026;-80
2023/10/30 18:09:03;;;;;;;39.90;24.00;;;15.60;1.00;;;;;;6043496;23;20029;-82
2023/10/30 18:16:03;;;;;;;52.83;32.95;;;15.70;1.00;;;;;;6134293;23;20032;-79
2023/10/30 18:18:32;;;;;;;44.72;28.75;;;15.50;1.00;;;;;;6127210;23;20041;-80
2023/10/30 18:21:00;;;;;;;53.78;33.95;;;15.40;1.00;;;;;;6125180;23;20020;-79
2023/10/30 18:23:29;;;;;;;47.70;28.27;;;15.30;71.30;;;;;;6160885;23;20566;-79
2023/10/30 18:25:57;;;;;;;48.30;28.90;;;15.30;99.90;;;;;;6125468;23;20028;-82
2023/10/30 18:28:25;;;;;;;48.65;29.70;;;15.10;99.90;;;;;;6125869;23;20216;-79
2023/10/30 18:30:53;;;;;;;51.85;31.33;;;15.00;1.00;;;;;;6155945;23;20104;-78
2023/10/30 18:33:30;;;;;;;56.30;33.72;;;14.90;1.00;;;;;;6154014;23;20017;-80
2023/10/30 18:36:37;;;;;;;47.78;32.03;;;14.80;1.00;;;;;;6155407;23;20017;-80
2023/10/30 18:39:05;;;;;;;58.95;38.92;;;14.80;1.00;;;;;;6180728;23;20017;-80
2023/10/30 18:41:34;;;;;;;52.88;34.92;;;14.70;1.00;;;;;;6155120;23;20021;-80
2023/10/30 18:44:27;;;;;;;43.35;27.27;;;14.70;1.00;;;;;;6154911;23;20040;-80
2023/10/30 18:47:46;;;;;;;;;;;;;;;;;;;;;
2023/10/30 18:57:52;;;;;;;56.08;34.72;;;14.70;1.00;;;;;;6107543;23;20029;-83
2023/10/30 19:00:31;;;;;;;55.08;35.78;;;14.50;1.00;;;;;;6102833;23;20018;-82
2023/10/30 19:03:15;;;;;;;55.38;35.30;;;14.40;1.00;;;;;;6107093;23;20049;-82
2023/10/30 19:05:57;;;;;;;54.05;33.05;;;14.40;1.00;;;;;;6100077;23;20077;-83
2023/10/30 19:08:50;;;;;;;55.20;34.00;;;14.30;1.00;;;;;;6097426;23;20078;-83
2023/10/30 19:11:32;;;;;;;53.65;33.60;;;14.40;1.00;;;;;;6097356;23;20018;-81
2023/10/30 19:14:08;;;;;;;48.15;31.25;;;14.30;99.90;;;;;;6097023;23;20030;-82
2023/10/30 19:16:47;;;;;;;48.63;31.05;;;14.30;99.90;;;;;;6100887;23;20025;-83
2023/10/30 19:19:55;;;;;;;;;;;;;;;;;;;;;
2023/10/30 19:29:46;;;;;;;53.53;33.35;;;14.30;1.00;;;;;;6137894;23;20042;-79
2023/10/30 19:32:27;;;;;;;48.42;29.88;;;14.20;1.00;;;;;;6154305;23;20017;-80
2023/10/30 19:35:18;;;;;;;49.28;30.80;;;14.10;99.90;;;;;;6180742;23;20072;-81
2023/10/30 19:37:50;;;;;;;53.72;33.58;;;14.10;99.90;;;;;;6155879;23;20017;-80
2023/10/30 19:40:18;;;;;;;59.80;33.95;;;14.00;99.90;;;;;;6153891;23;20524;-79
2023/10/30 19:42:50;;;;;;;57.78;34.60;;;14.10;57.80;;;;;;6154077;23;20095;-80
2023/10/30 19:45:18;;;;;;;55.58;36.25;;;14.10;1.00;;;;;;6154438;23;20017;-79
2023/10/30 19:48:39;;;;;;;55.42;36.25;;;13.90;1.00;;;;;;6153941;23;20017;-80
2023/10/30 19:51:11;;;;;;;57.90;36.40;;;13.70;1.00;;;;;;6143644;23;20473;-81
2023/10/30 19:53:43;;;;;;;55.15;35.88;;;13.60;99.90;;;;;;6163566;23;20027;-81
2023/10/30 19:56:13;;;;;;;62.75;37.65;;;13.50;1.00;;;;;;6159478;23;20017;-80
2023/10/30 19:58:44;;;;;;;60.85;38.08;;;13.40;1.00;;;;;;6199119;23;20016;-80
2023/10/30 20:01:14;;;;;;;63.47;39.38;;;13.40;1.00;;;;;;6215732;23;20017;-80
2023/10/30 20:03:42;;;;;;;60.97;38.38;;;13.40;1.00;;;;;;6234895;23;20096;-80
2023/10/30 20:06:14;;;;;;;51.28;32.03;;;13.40;1.00;;;;;;6216430;23;20017;-81
2023/10/30 20:08:42;;;;;;;66.03;37.47;;;13.40;1.00;;;;;;6215613;23;20600;-80
2023/10/30 20:11:10;;;;;;;55.53;36.90;;;13.40;1.00;;;;;;6213291;23;20017;-79
2023/10/30 20:13:41;;;;;;;59.83;37.50;;;13.30;1.00;;;;;;6212672;23;20406;-81
2023/10/30 20:16:22;;;;;;;57.70;35.88;;;13.30;1.00;;;;;;6216636;23;20385;-80
2023/10/30 20:18:51;;;;;;;59.50;36.55;;;13.40;1.00;;;;;;6193312;23;20021;-80
2023/10/30 20:21:20;;;;;;;58.50;36.63;;;13.30;1.00;;;;;;6243070;23;20040;-80
2023/10/30 20:23:49;;;;;;;54.72;33.30;;;13.30;99.90;;;;;;6214532;23;20071;-79
2023/10/30 20:26:21;;;;;;;58.42;34.17;;;13.20;69.50;;;;;;6215929;23;20024;-79
2023/10/30 20:28:49;;;;;;;49.65;31.30;;;13.10;1.00;;;;;;6215121;23;20017;-80
2023/10/30 20:31:38;;;;;;;51.90;30.35;;;13.10;99.90;;;;;;6216161;23;20044;-81
